Vienna International Airport LOWW

Flugplatz Daten

Name: Vienna International Airport

Ident: LOWW

Lat: 48,11029816

Long: 16,56970024

Platzhöhe: 600 ft

IataCode: VIE

City: Vienna

Homepage: http://www.viennaairport.com/jart/prj3/via/website.jart?rel=en&reserve-mode=active/

Metar

2021/08/02 07:20
LOWW 020720Z 28016KT CAVOK 20/12 Q1014 NOSIG

Taf

2021/08/02 06:22
TAF LOWW 020515Z 0206/0312 29012KT CAVOK TX25/0312Z TN13/0303Z
TEMPO 0213/0217 FEW050CB
BECMG 0220/0222 VRB04KT
BECMG 0308/0310 13010KT

Webcams

Wien Schwechat Wien Schwechat
Gewünschte Webcam nicht vorhanden? Dann fügen Sie eine hinzu. Sie wird dann so schnell wie möglich freigeschaltet
Url: Title: